Time;durP1;ratioP1;P1;durP2;ratioP2;P2;SDS_P1;SDS_P2;PMS_P1;PMS_P2;Temp;Humidity;BMP_temperature;BMP_pressure;BME280_temperature;BME280_humidity;BME280_pressure;Samples;Min_cycle;Max_cycle;Signal;HPM_P1;HPM_P2
2022/07/06 00:08:15;;;;;;;0.77;0.60;;;;;;;18.79;75.67;102126.25;20970189;28;20044;-76
2022/07/06 00:18:17;;;;;;;1.35;0.50;;;;;;;18.88;75.57;102130.09;20972471;28;20500;-76
2022/07/06 00:28:19;;;;;;;1.10;0.90;;;;;;;18.70;75.53;102091.84;20960251;28;20056;-76
2022/07/06 00:38:21;;;;;;;0.70;0.60;;;;;;;18.87;75.69;102117.56;20952174;28;20040;-76
2022/07/06 00:48:23;;;;;;;0.82;0.60;;;;;;;18.93;75.63;102136.00;20968155;28;20123;-76
2022/07/06 00:58:25;;;;;;;3.53;1.13;;;;;;;18.84;75.76;102125.91;20968270;28;20055;-77
2022/07/06 01:08:28;;;;;;;0.55;0.50;;;;;;;18.92;75.77;102137.00;20966271;28;20083;-77
2022/07/06 01:18:30;;;;;;;0.40;0.40;;;;;;;18.81;75.79;102118.03;20948043;28;20063;-76
2022/07/06 01:28:32;;;;;;;0.50;0.50;;;;;;;18.91;75.66;102129.88;20950918;28;20573;-76
2022/07/06 01:38:49;;;;;;;0.45;0.30;;;;;;;18.79;75.78;102103.81;20962571;28;20052;-76
2022/07/06 01:48:51;;;;;;;1.08;0.50;;;;;;;18.75;75.84;102091.50;20865037;28;20041;-76
2022/07/06 01:58:52;;;;;;;0.85;0.40;;;;;;;18.89;75.98;102104.84;20878958;28;20087;-76
2022/07/06 02:08:57;;;;;;;0.70;0.52;;;;;;;18.90;75.89;102116.50;20863989;28;20452;-76
2022/07/06 02:19:00;;;;;;;0.70;0.50;;;;;;;18.83;76.09;102097.19;20869808;28;20049;-76
2022/07/06 02:29:02;;;;;;;1.00;0.52;;;;;;;18.88;75.96;102103.13;20801221;28;20055;-76
2022/07/06 02:39:04;;;;;;;0.40;0.40;;;;;;;18.83;75.96;102105.28;20812501;28;20054;-76
2022/07/06 02:49:06;;;;;;;0.50;0.50;;;;;;;18.88;76.11;102104.97;20795762;28;20056;-76
2022/07/06 02:59:08;;;;;;;0.75;0.57;;;;;;;18.78;76.10;102097.56;20811856;28;20055;-76
2022/07/06 03:09:15;;;;;;;0.60;0.40;;;;;;;18.80;76.06;102108.22;20811056;28;20513;-76
2022/07/06 03:19:17;;;;;;;0.65;0.50;;;;;;;18.81;76.11;102118.03;20824686;28;20045;-76
2022/07/06 03:29:20;;;;;;;0.82;0.40;;;;;;;18.79;76.21;102125.38;20974502;28;20049;-77
2022/07/06 03:39:24;;;;;;;0.63;0.60;;;;;;;18.85;76.09;102135.72;20975060;28;20044;-76
2022/07/06 03:49:27;;;;;;;0.70;0.40;;;;;;;18.85;76.36;102130.31;20973261;28;20098;-76
2022/07/06 03:59:31;;;;;;;0.57;0.30;;;;;;;18.86;76.28;102131.19;20970641;28;20059;-76
2022/07/06 04:09:33;;;;;;;0.82;0.50;;;;;;;18.84;76.24;102129.47;20971432;28;20059;-76
2022/07/06 04:19:35;;;;;;;0.70;0.50;;;;;;;18.85;76.52;102135.72;20869583;28;20071;-76
2022/07/06 04:29:37;;;;;;;0.65;0.50;;;;;;;18.84;76.43;102129.47;20849474;28;20044;-76
2022/07/06 04:39:39;;;;;;;1.00;0.43;;;;;;;18.84;76.65;102134.88;20802460;28;20512;-76
2022/07/06 04:49:41;;;;;;;0.43;0.40;;;;;;;18.85;76.76;102124.94;20874548;28;20045;-76
2022/07/06 04:59:43;;;;;;;0.40;0.40;;;;;;;18.86;76.49;102137.44;20877300;28;20462;-76
2022/07/06 05:09:44;;;;;;;0.50;0.40;;;;;;;18.86;76.50;102137.44;20882048;28;20048;-76
2022/07/06 05:19:53;;;;;;;0.75;0.60;;;;;;;18.53;76.50;102090.38;20843747;28;20061;-74
2022/07/06 05:29:55;;;;;;;2.00;0.50;;;;;;;18.77;76.31;102130.88;20837587;28;20190;-76
2022/07/06 05:39:57;;;;;;;4.28;0.60;;;;;;;18.86;78.34;102132.03;20872284;28;20397;-76
2022/07/06 05:50:14;;;;;;;1.60;0.50;;;;;;;18.81;78.19;102115.34;20853161;28;20047;-76
2022/07/06 06:00:25;;;;;;;2.05;0.35;;;;;;;18.98;77.87;102157.31;20769401;28;20053;-77
2022/07/06 06:10:29;;;;;;;1.48;0.30;;;;;;;18.89;77.29;102141.75;20772443;28;20041;-76
2022/07/06 06:20:34;;;;;;;2.10;0.73;;;;;;;18.99;76.96;102164.44;20837765;28;20048;-76
2022/07/06 06:30:36;;;;;;;1.15;0.60;;;;;;;18.99;76.65;102192.25;20875112;28;20045;-77
2022/07/06 06:40:38;;;;;;;0.47;0.40;;;;;;;19.01;76.40;102199.41;20864955;28;20118;-76
2022/07/06 06:50:40;;;;;;;1.02;0.40;;;;;;;19.01;76.62;102199.41;20868681;28;20136;-75
2022/07/06 07:00:43;;;;;;;2.03;0.52;;;;;;;18.90;76.29;102174.00;20875344;28;20056;-76
2022/07/06 07:10:44;;;;;;;0.70;0.57;;;;;;;19.03;76.44;102192.91;20875344;28;20059;-75
2022/07/06 07:20:46;;;;;;;0.30;0.28;;;;;;;19.07;76.38;102196.25;20887046;28;20446;-75
2022/07/06 07:30:47;;;;;;;1.23;0.40;;;;;;;19.10;76.67;102201.44;20889263;28;20045;-75
2022/07/06 07:40:49;;;;;;;1.88;0.30;;;;;;;19.03;76.15;102195.59;20886202;28;20049;-77
2022/07/06 07:50:51;;;;;;;1.05;0.40;;;;;;;19.03;76.87;102186.66;20882238;28;20123;-76
2022/07/06 08:00:53;;;;;;;0.50;0.32;;;;;;;19.09;77.31;102188.91;20875216;28;20098;-75
2022/07/06 08:10:54;;;;;;;1.08;0.47;;;;;;;19.12;76.92;102184.13;20850437;28;20125;-76
2022/07/06 08:21:16;;;;;;;0.95;0.43;;;;;;;19.16;76.88;102192.88;20809576;28;20048;-75
2022/07/06 08:31:27;;;;;;;1.90;0.45;;;;;;;19.14;76.65;102197.53;20860937;28;20457;-77
2022/07/06 08:41:49;;;;;;;1.58;0.60;;;;;;;19.03;76.28;102181.28;20866108;28;20133;-76
2022/07/06 08:51:51;;;;;;;2.22;0.52;;;;;;;19.18;75.98;102182.81;20881278;28;20052;-76
2022/07/06 09:01:52;;;;;;;2.00;0.52;;;;;;;19.08;75.56;102163.75;20846636;28;20053;-77
2022/07/06 09:11:54;;;;;;;0.73;0.52;;;;;;;19.28;75.33;102191.13;20853468;28;20098;-78
2022/07/06 09:22:04;;;;;;;2.15;0.68;;;;;;;19.36;75.27;102194.09;20813582;28;20059;-77
2022/07/06 09:32:06;;;;;;;0.60;0.40;;;;;;;19.41;74.93;102188.34;20871714;28;20045;-77
2022/07/06 09:42:08;;;;;;;1.58;0.28;;;;;;;19.45;74.91;102202.47;20860109;28;20049;-77
2022/07/06 09:52:10;;;;;;;0.38;0.22;;;;;;;19.47;75.26;102179.78;20872290;28;23054;-77
2022/07/06 10:02:14;;;;;;;0.60;0.30;;;;;;;19.45;74.34;102183.56;20862066;28;20053;-76
2022/07/06 10:12:17;;;;;;;0.70;0.40;;;;;;;19.41;74.07;102185.63;20862645;28;20052;-76
2022/07/06 10:22:19;;;;;;;0.90;0.30;;;;;;;19.41;73.94;102185.63;20864376;28;20142;-76
2022/07/06 10:32:23;;;;;;;0.95;0.30;;;;;;;19.39;73.63;102174.09;20772108;28;20099;-76
2022/07/06 10:42:44;;;;;;;0.47;0.20;;;;;;;19.39;73.92;102166.88;20843463;28;20110;-76
2022/07/06 10:52:51;;;;;;;0.30;0.10;;;;;;;19.39;73.90;102155.19;20869851;28;20045;-76
2022/07/06 11:02:53;;;;;;;1.00;0.50;;;;;;;19.40;73.81;102165.00;20857967;28;20041;-77
2022/07/06 11:13:00;;;;;;;0.95;0.30;;;;;;;19.22;73.53;102135.72;20813918;28;20076;-78
2022/07/06 11:23:02;;;;;;;0.52;0.28;;;;;;;19.35;74.09;102157.28;20866673;28;20586;-76
2022/07/06 11:33:04;;;;;;;0.38;0.38;;;;;;;19.29;74.62;102144.22;20872160;28;20509;-77
2022/07/06 11:43:05;;;;;;;0.40;0.20;;;;;;;19.23;74.79;102128.50;20887238;28;20049;-76
2022/07/06 11:53:07;;;;;;;2.67;0.50;;;;;;;19.23;74.81;102126.66;20884245;28;20063;-76
2022/07/06 12:03:08;;;;;;;0.20;0.20;;;;;;;19.17;75.26;102102.81;20885629;28;20167;-77
2022/07/06 12:13:10;;;;;;;0.60;0.30;;;;;;;19.04;75.12;102075.88;20879227;28;20042;-76
2022/07/06 12:23:12;;;;;;;0.43;0.20;;;;;;;19.16;75.18;102111.00;20878726;28;20048;-76
2022/07/06 12:33:21;;;;;;;0.30;0.25;;;;;;;19.16;75.05;102106.50;20864592;28;20068;-76
2022/07/06 12:43:37;;;;;;;1.48;0.30;;;;;;;19.15;75.17;102091.28;20879473;28;20525;-74
2022/07/06 12:53:38;;;;;;;0.73;0.25;;;;;;;19.17;75.40;102093.84;20875038;28;20110;-77
2022/07/06 13:03:40;;;;;;;0.65;0.30;;;;;;;19.16;75.06;102070.53;20876291;28;20068;-76
2022/07/06 13:13:43;;;;;;;0.90;0.40;;;;;;;19.18;75.18;102077.53;20878395;28;20044;-76
2022/07/06 13:23:45;;;;;;;1.20;0.25;;;;;;;19.19;74.75;102073.88;20876618;28;20045;-76
2022/07/06 13:33:47;;;;;;;1.20;0.40;;;;;;;19.19;74.64;102070.28;20875839;28;20494;-76
2022/07/06 13:43:48;;;;;;;0.57;0.20;;;;;;;19.04;74.46;102031.84;20871826;28;20055;-77
2022/07/06 13:53:50;;;;;;;0.35;0.30;;;;;;;19.12;74.19;102042.94;20856440;28;20048;-77
2022/07/06 14:03:52;;;;;;;0.30;0.30;;;;;;;19.19;74.18;102052.28;20873485;28;20045;-77
2022/07/06 14:13:54;;;;;;;1.42;0.50;;;;;;;19.19;73.78;102044.16;20877838;28;20071;-76
2022/07/06 14:23:55;;;;;;;0.70;0.30;;;;;;;18.73;73.38;101975.63;20872958;28;20044;-76
2022/07/06 14:33:57;;;;;;;0.55;0.30;;;;;;;19.09;73.46;102016.16;20873221;28;20102;-75
2022/07/06 14:43:58;;;;;;;0.60;0.30;;;;;;;19.18;73.44;102022.69;20886551;28;20523;-78
2022/07/06 14:54:00;;;;;;;0.38;0.30;;;;;;;19.02;73.30;101996.88;20875124;28;20052;-76
2022/07/06 15:04:01;;;;;;;0.90;0.30;;;;;;;19.17;73.19;102027.22;20870970;28;20505;-76
2022/07/06 15:14:03;;;;;;;0.40;0.30;;;;;;;19.17;72.86;102013.72;20861389;28;20044;-76
2022/07/06 15:24:05;;;;;;;0.88;0.45;;;;;;;19.17;73.32;101999.38;20852517;28;20044;-75
2022/07/06 15:34:06;;;;;;;1.42;0.70;;;;;;;19.17;73.45;101992.16;20847044;28;21806;-76
2022/07/06 15:44:08;;;;;;;0.85;0.40;;;;;;;18.92;73.23;101958.91;20860290;28;20476;-78
2022/07/06 15:54:09;;;;;;;0.43;0.20;;;;;;;19.06;73.27;101965.97;20788858;28;20119;-77
2022/07/06 16:04:11;;;;;;;0.63;0.38;;;;;;;19.15;73.49;101969.81;20797194;28;20045;-78
2022/07/06 16:14:12;;;;;;;0.73;0.32;;;;;;;19.11;73.62;101949.44;20783250;28;20049;-78
2022/07/06 16:24:14;;;;;;;0.57;0.30;;;;;;;19.14;73.87;101970.78;20815950;28;20507;-77
2022/07/06 16:34:16;;;;;;;1.88;0.43;;;;;;;19.13;73.88;101966.38;20839409;28;20053;-78
2022/07/06 16:44:17;;;;;;;2.95;0.60;;;;;;;19.13;73.74;101955.56;20841160;28;20117;-77
2022/07/06 16:54:19;;;;;;;1.85;0.88;;;;;;;19.12;73.57;101940.34;20856268;28;20049;-76
2022/07/06 17:04:20;;;;;;;2.05;0.55;;;;;;;19.11;73.68;101923.28;20815313;28;20064;-78
2022/07/06 17:14:22;;;;;;;3.40;0.57;;;;;;;18.95;73.89;101885.81;20784868;28;20049;-76
2022/07/06 17:24:24;;;;;;;2.55;0.70;;;;;;;19.12;74.65;101905.28;20774139;28;20502;-77
2022/07/06 17:34:25;;;;;;;2.30;0.88;;;;;;;19.13;75.51;101890.78;20775979;28;20050;-77
2022/07/06 17:44:27;;;;;;;3.53;0.90;;;;;;;19.04;76.58;101881.56;20773093;28;20046;-77
2022/07/06 17:54:28;;;;;;;3.03;0.98;;;;;;;19.13;77.80;101901.59;20813603;28;20061;-77
2022/07/06 18:04:30;;;;;;;3.63;1.45;;;;;;;19.13;79.48;101882.69;20854230;28;20061;-77
2022/07/06 18:14:32;;;;;;;3.47;1.02;;;;;;;19.13;80.04;101866.50;20873354;28;20521;-77
2022/07/06 18:24:34;;;;;;;4.88;1.63;;;;;;;18.95;79.96;101829.13;20867419;28;20055;-78
2022/07/06 18:34:35;;;;;;;2.80;1.92;;;;;;;18.70;80.10;101774.44;20901079;28;20056;-77
2022/07/06 18:44:37;;;;;;;3.85;1.00;;;;;;;18.87;80.43;101796.50;20796701;28;20502;-77
2022/07/06 18:54:38;;;;;;;3.72;1.13;;;;;;;19.01;81.07;101816.19;20794375;28;20045;-76
2022/07/06 19:04:40;;;;;;;2.65;1.02;;;;;;;19.11;81.44;101812.63;20796050;28;20107;-76
2022/07/06 19:14:42;;;;;;;2.05;1.10;;;;;;;19.10;81.85;101800.13;20802270;28;20046;-76
2022/07/06 19:24:43;;;;;;;1.33;0.80;;;;;;;19.10;81.65;101783.06;20811586;28;20077;-76
2022/07/06 19:34:45;;;;;;;1.88;0.90;;;;;;;18.83;82.02;101743.78;20810865;28;20490;-76
2022/07/06 19:44:46;;;;;;;1.33;0.80;;;;;;;18.41;82.65;101664.31;20810962;28;20059;-76
2022/07/06 19:54:48;;;;;;;2.88;1.00;;;;;;;19.09;82.98;101762.47;20809193;28;20387;-76
2022/07/06 20:04:50;;;;;;;2.03;0.85;;;;;;;19.10;83.19;101758.78;20969788;28;20055;-77
2022/07/06 20:14:51;;;;;;;3.25;1.00;;;;;;;19.09;83.51;101766.00;20973912;28;20121;-76
2022/07/06 20:24:53;;;;;;;1.98;0.95;;;;;;;19.07;83.75;101750.94;20889317;28;20415;-76
2022/07/06 20:34:54;;;;;;;1.50;1.15;;;;;;;18.72;84.03;101682.59;20889111;28;20049;-76
2022/07/06 20:44:57;;;;;;;1.98;0.90;;;;;;;19.01;84.17;101721.75;20869397;28;20502;-76
2022/07/06 20:54:58;;;;;;;2.40;1.00;;;;;;;19.08;84.69;101734.59;20877200;28;20044;-76
2022/07/06 21:05:00;;;;;;;1.98;1.00;;;;;;;19.06;84.59;101717.69;20967114;28;20048;-76
2022/07/06 21:15:02;;;;;;;1.48;0.98;;;;;;;19.07;85.01;101711.28;20966375;28;20046;-76
2022/07/06 21:25:04;;;;;;;2.28;1.20;;;;;;;19.07;85.37;101699.66;20965758;28;20048;-76
2022/07/06 21:35:06;;;;;;;2.75;1.10;;;;;;;19.07;85.35;101692.41;20966020;28;20049;-76
2022/07/06 21:45:08;;;;;;;2.17;1.02;;;;;;;19.07;85.68;101680.78;20866305;28;20045;-76
2022/07/06 21:55:09;;;;;;;2.47;1.10;;;;;;;19.06;86.09;101666.41;20897683;28;20044;-76
2022/07/06 22:05:11;;;;;;;2.42;1.00;;;;;;;18.89;86.06;101627.28;20962952;28;20058;-77
2022/07/06 22:15:14;;;;;;;1.42;1.13;;;;;;;19.07;86.15;101643.00;20965054;28;20106;-76
2022/07/06 22:25:16;;;;;;;1.05;0.90;;;;;;;19.06;86.39;101635.88;20879017;28;20053;-76
2022/07/06 22:35:17;;;;;;;1.17;1.00;;;;;;;19.06;86.76;101630.47;20862507;28;20049;-76
2022/07/06 22:45:19;;;;;;;2.00;0.95;;;;;;;18.41;86.68;101516.03;20881317;28;20057;-76
2022/07/06 22:55:21;;;;;;;1.17;1.00;;;;;;;18.93;86.92;101592.81;20917872;28;20053;-76
2022/07/06 23:05:22;;;;;;;1.15;1.00;;;;;;;18.96;87.02;101588.00;20978306;28;20420;-77
2022/07/06 23:15:25;;;;;;;1.25;1.10;;;;;;;18.95;87.43;101570.09;20975190;28;20501;-77
2022/07/06 23:25:27;;;;;;;1.90;1.10;;;;;;;18.98;87.49;101553.69;20975228;28;20098;-76
2022/07/06 23:35:28;;;;;;;1.95;1.00;;;;;;;19.06;87.63;101546.81;20976000;28;20082;-76
2022/07/06 23:45:30;;;;;;;1.20;1.00;;;;;;;18.98;87.76;101536.66;20972357;28;20135;-77
2022/07/06 23:55:32;;;;;;;1.52;1.35;;;;;;;19.05;87.85;101540.56;20959217;28;20056;-77
